createdAt,value
2018-11-28T00:00:07.363Z,944.28
2018-11-28T00:02:33.710Z,944.32
2018-11-28T00:05:00.010Z,944.38
2018-11-28T00:07:26.310Z,944.36
2018-11-28T00:09:52.657Z,944.50
2018-11-28T00:12:18.977Z,944.47
2018-11-28T00:14:45.290Z,944.49
2018-11-28T00:17:11.592Z,944.46
2018-11-28T00:19:37.903Z,944.55
2018-11-28T00:22:04.230Z,944.59
2018-11-28T00:24:30.544Z,944.60
2018-11-28T00:26:56.849Z,944.64
2018-11-28T00:29:23.142Z,944.69
2018-11-28T00:31:49.489Z,944.59
2018-11-28T00:34:15.792Z,944.65
2018-11-28T00:36:42.110Z,944.67
2018-11-28T00:39:08.429Z,944.76
2018-11-28T00:41:34.741Z,944.82
2018-11-28T00:44:01.041Z,944.79
2018-11-28T00:46:27.369Z,944.78
2018-11-28T00:48:53.675Z,944.89
2018-11-28T00:51:19.996Z,944.83
2018-11-28T00:53:46.304Z,944.80
2018-11-28T00:56:12.677Z,944.77
2018-11-28T00:58:39.000Z,944.92
2018-11-28T01:01:05.319Z,944.85
2018-11-28T01:03:31.654Z,944.89
2018-11-28T01:05:57.967Z,944.88
2018-11-28T01:08:24.260Z,944.88
2018-11-28T01:10:50.574Z,944.98
2018-11-28T01:13:16.897Z,944.95
2018-11-28T01:15:43.185Z,944.90
2018-11-28T01:18:09.540Z,944.91
2018-11-28T01:20:35.869Z,944.94
2018-11-28T01:23:02.163Z,944.88
2018-11-28T01:25:28.455Z,944.89
2018-11-28T01:27:54.799Z,944.86
2018-11-28T01:30:21.113Z,944.92
2018-11-28T01:32:47.458Z,944.90
2018-11-28T01:35:13.792Z,944.89
2018-11-28T01:37:40.110Z,944.86
2018-11-28T01:40:06.401Z,944.90
2018-11-28T01:42:32.726Z,944.96
2018-11-28T01:44:59.038Z,945.03
2018-11-28T01:47:25.358Z,944.99
2018-11-28T01:49:51.686Z,945.04
2018-11-28T01:52:18.007Z,945.11
2018-11-28T01:54:44.372Z,945.12
2018-11-28T01:57:10.723Z,945.08
2018-11-28T01:59:37.056Z,945.16
2018-11-28T02:02:03.376Z,945.27
2018-11-28T02:04:29.671Z,945.26
2018-11-28T02:06:56.009Z,945.29
2018-11-28T02:09:22.314Z,945.31
2018-11-28T02:11:48.619Z,945.30
2018-11-28T02:14:14.933Z,945.34
2018-11-28T02:16:41.249Z,945.42
2018-11-28T02:19:07.552Z,945.52
2018-11-28T02:21:33.863Z,945.52
2018-11-28T02:24:00.195Z,945.54
2018-11-28T02:26:26.489Z,945.66
2018-11-28T02:28:52.802Z,945.59
2018-11-28T02:31:19.113Z,945.69
2018-11-28T02:33:45.443Z,945.71
2018-11-28T02:36:11.792Z,945.69
2018-11-28T02:38:38.100Z,945.74
2018-11-28T02:41:04.391Z,945.75
2018-11-28T02:43:30.707Z,945.78
2018-11-28T02:45:57.045Z,945.82
2018-11-28T02:48:23.356Z,945.87
2018-11-28T02:50:49.691Z,945.92
2018-11-28T02:53:16.021Z,945.87
2018-11-28T02:55:42.319Z,945.92
2018-11-28T02:58:08.633Z,945.97
2018-11-28T03:00:34.966Z,946.04
2018-11-28T03:03:01.290Z,946.05
2018-11-28T03:05:27.644Z,946.05
2018-11-28T03:07:53.934Z,946.16
2018-11-28T03:10:20.251Z,946.22
2018-11-28T03:12:46.579Z,946.28
2018-11-28T03:15:12.902Z,946.31
2018-11-28T03:17:39.230Z,946.38
2018-11-28T03:20:05.560Z,946.38
2018-11-28T03:22:31.870Z,946.48
2018-11-28T03:24:58.211Z,946.52
2018-11-28T03:27:24.517Z,946.49
2018-11-28T03:29:50.847Z,946.61
2018-11-28T03:32:17.159Z,946.66
2018-11-28T03:34:45.553Z,946.68
2018-11-28T03:37:09.802Z,946.69
2018-11-28T03:39:36.114Z,946.74
2018-11-28T03:42:02.418Z,946.69
2018-11-28T03:44:28.703Z,946.73
2018-11-28T03:46:55.066Z,946.80
2018-11-28T03:49:21.363Z,946.76
2018-11-28T03:51:47.709Z,946.84
2018-11-28T03:54:14.045Z,946.86
2018-11-28T03:56:40.373Z,946.89
2018-11-28T03:59:06.717Z,946.96
2018-11-28T04:01:33.053Z,946.96
2018-11-28T04:03:59.360Z,947.00
2018-11-28T04:06:25.654Z,947.03
2018-11-28T04:08:52.000Z,947.03
2018-11-28T04:11:18.302Z,947.10
2018-11-28T04:13:44.595Z,947.13
2018-11-28T04:16:10.899Z,947.16
2018-11-28T04:18:37.216Z,947.19
2018-11-28T04:21:03.536Z,947.23
2018-11-28T04:23:29.876Z,947.29
2018-11-28T04:25:56.165Z,947.26
2018-11-28T04:28:22.491Z,947.33
2018-11-28T04:30:48.876Z,947.35
2018-11-28T04:33:15.165Z,947.36
2018-11-28T04:35:41.487Z,947.33
2018-11-28T04:38:07.824Z,947.47
2018-11-28T04:40:34.156Z,947.44
2018-11-28T04:43:00.463Z,947.43
2018-11-28T04:45:26.810Z,947.49
2018-11-28T04:47:53.112Z,947.54
2018-11-28T04:50:19.432Z,947.53
2018-11-28T04:52:45.777Z,947.61
2018-11-28T04:55:12.078Z,947.57
2018-11-28T04:57:38.373Z,947.63
2018-11-28T05:00:04.692Z,947.63
2018-11-28T05:02:31.023Z,947.71
2018-11-28T05:04:57.310Z,947.73
2018-11-28T05:07:23.682Z,947.80
2018-11-28T05:09:49.999Z,947.87
2018-11-28T05:12:16.311Z,947.82
2018-11-28T05:14:42.614Z,947.90
2018-11-28T05:17:08.940Z,947.88
2018-11-28T05:19:35.285Z,947.92
2018-11-28T05:22:01.543Z,948.03
2018-11-28T05:24:27.908Z,948.05
2018-11-28T05:26:54.211Z,948.09
2018-11-28T05:29:20.524Z,948.22
2018-11-28T05:31:46.833Z,948.25
2018-11-28T05:34:13.226Z,948.27
2018-11-28T05:36:39.530Z,948.34
2018-11-28T05:39:05.863Z,948.40
2018-11-28T05:41:32.232Z,948.41
2018-11-28T05:43:58.551Z,948.44
2018-11-28T05:46:24.860Z,948.48
2018-11-28T05:48:51.190Z,948.51
2018-11-28T05:51:17.517Z,948.63
2018-11-28T05:53:43.839Z,948.69
2018-11-28T05:56:10.213Z,948.69
2018-11-28T05:58:36.538Z,948.76
2018-11-28T06:01:02.824Z,948.80
2018-11-28T06:03:29.130Z,948.81
2018-11-28T06:05:55.448Z,948.81
2018-11-28T06:08:21.767Z,948.84
2018-11-28T06:10:48.084Z,948.87
2018-11-28T06:13:14.411Z,948.93
2018-11-28T06:15:40.736Z,948.97
2018-11-28T06:18:07.036Z,949.02
2018-11-28T06:20:33.379Z,949.05
2018-11-28T06:22:59.675Z,949.15
2018-11-28T06:25:26.000Z,949.15
2018-11-28T06:27:52.319Z,949.26
2018-11-28T06:30:18.676Z,949.27
2018-11-28T06:32:51.045Z,949.29
2018-11-28T06:35:11.421Z,949.39
2018-11-28T06:37:37.723Z,949.42
2018-11-28T06:40:04.056Z,949.41
2018-11-28T06:42:30.367Z,949.43
2018-11-28T06:44:56.683Z,949.45
2018-11-28T06:47:23.023Z,949.40
2018-11-28T06:49:49.330Z,949.46
2018-11-28T06:52:15.644Z,949.56
2018-11-28T06:54:41.947Z,949.63
2018-11-28T06:57:08.321Z,949.70
2018-11-28T06:59:34.705Z,949.72
2018-11-28T07:02:01.009Z,949.82
2018-11-28T07:04:27.344Z,949.88
2018-11-28T07:06:53.729Z,949.83
2018-11-28T07:09:20.038Z,949.94
2018-11-28T07:11:46.341Z,949.92
2018-11-28T07:14:12.682Z,949.99
2018-11-28T07:16:39.023Z,950.03
2018-11-28T07:19:05.337Z,950.11
2018-11-28T07:21:31.684Z,950.14
2018-11-28T07:23:57.997Z,950.09
2018-11-28T07:26:24.320Z,950.15
2018-11-28T07:28:50.631Z,950.18
2018-11-28T07:31:16.938Z,950.23
2018-11-28T07:33:43.255Z,950.23
2018-11-28T07:36:09.611Z,950.30
2018-11-28T07:38:35.922Z,950.29
2018-11-28T07:41:02.213Z,950.29
2018-11-28T07:43:28.549Z,950.44
2018-11-28T07:45:54.854Z,950.42
2018-11-28T07:48:21.148Z,950.49
2018-11-28T07:50:47.633Z,950.52
2018-11-28T07:53:13.801Z,950.57
2018-11-28T07:55:40.139Z,950.61
2018-11-28T07:58:06.450Z,950.64
2018-11-28T08:00:32.766Z,950.73
2018-11-28T08:02:59.057Z,950.72
2018-11-28T08:05:25.429Z,950.78
2018-11-28T08:07:51.731Z,950.84
2018-11-28T08:10:18.087Z,950.91
2018-11-28T08:12:44.420Z,950.98
2018-11-28T08:15:10.753Z,950.97
2018-11-28T08:17:37.062Z,951.07
2018-11-28T08:20:03.381Z,951.08
2018-11-28T08:22:29.720Z,951.08
2018-11-28T08:24:56.023Z,951.17
2018-11-28T08:27:22.352Z,951.20
2018-11-28T08:29:48.679Z,951.25
2018-11-28T08:32:15.003Z,951.20
2018-11-28T08:34:41.459Z,951.27
2018-11-28T08:37:07.776Z,951.32
2018-11-28T08:39:34.108Z,951.37
2018-11-28T08:42:00.407Z,951.42
2018-11-28T08:44:26.730Z,951.43
2018-11-28T08:46:53.063Z,951.49
2018-11-28T08:49:19.392Z,951.51
2018-11-28T08:51:45.686Z,951.54
2018-11-28T08:54:14.369Z,951.52
2018-11-28T08:56:38.586Z,951.52
2018-11-28T08:59:04.966Z,951.58
2018-11-28T09:01:31.259Z,951.58
2018-11-28T09:03:57.618Z,951.62
2018-11-28T09:06:23.907Z,951.69
2018-11-28T09:08:50.202Z,951.75
2018-11-28T09:11:16.544Z,951.75
2018-11-28T09:13:42.870Z,951.77
2018-11-28T09:16:09.201Z,951.78
2018-11-28T09:18:35.502Z,951.83
2018-11-28T09:21:01.813Z,951.81
2018-11-28T09:23:28.137Z,951.82
2018-11-28T09:25:54.529Z,951.83
2018-11-28T09:28:20.841Z,951.88
2018-11-28T09:30:47.277Z,951.83
2018-11-28T09:33:13.670Z,951.87
2018-11-28T09:35:43.569Z,951.85
2018-11-28T09:38:08.636Z,951.88
2018-11-28T09:40:34.949Z,951.97
2018-11-28T09:43:01.272Z,952.04
2018-11-28T09:45:27.677Z,951.98
2018-11-28T09:47:54.008Z,952.06
2018-11-28T09:50:20.310Z,952.08
2018-11-28T09:52:46.626Z,952.03
2018-11-28T09:55:12.936Z,952.11
2018-11-28T09:57:39.275Z,952.16
2018-11-28T10:00:07.023Z,952.15
2018-11-28T10:02:33.324Z,952.20
2018-11-28T10:05:02.731Z,952.19
2018-11-28T10:07:25.975Z,952.21
2018-11-28T10:09:52.373Z,952.26
2018-11-28T10:12:19.784Z,952.21
2018-11-28T10:14:45.051Z,952.25
2018-11-28T10:17:11.386Z,952.24
2018-11-28T10:19:37.696Z,952.28
2018-11-28T10:22:04.018Z,952.30
2018-11-28T10:24:30.347Z,952.43
2018-11-28T10:26:56.659Z,952.35
2018-11-28T10:29:22.955Z,952.40
2018-11-28T10:31:49.282Z,952.45
2018-11-28T10:34:15.619Z,952.41
2018-11-28T10:36:41.987Z,952.44
2018-11-28T10:39:08.319Z,952.47
2018-11-28T10:41:34.693Z,952.49
2018-11-28T10:44:00.942Z,952.49
2018-11-28T10:46:27.668Z,952.46
2018-11-28T10:48:53.552Z,952.53
2018-11-28T10:51:19.870Z,952.57
2018-11-28T10:53:46.168Z,952.58
2018-11-28T10:56:12.476Z,952.60
2018-11-28T10:58:38.796Z,952.61
2018-11-28T11:01:05.116Z,952.59
2018-11-28T11:03:31.454Z,952.59
2018-11-28T11:05:57.780Z,952.62
2018-11-28T11:08:24.096Z,952.61
2018-11-28T11:10:50.424Z,952.58
2018-11-28T11:13:16.766Z,952.63
2018-11-28T11:15:43.069Z,952.66
2018-11-28T11:18:10.733Z,952.70
2018-11-28T11:20:35.742Z,952.71
2018-11-28T11:23:02.073Z,952.75
2018-11-28T11:25:28.431Z,952.72
2018-11-28T11:27:54.758Z,952.78
2018-11-28T11:30:21.096Z,952.83
2018-11-28T11:32:47.437Z,952.86
2018-11-28T11:35:13.722Z,952.95
2018-11-28T11:37:40.034Z,952.93
2018-11-28T11:40:06.373Z,952.97
2018-11-28T11:42:32.681Z,952.94
2018-11-28T11:44:59.031Z,953.01
2018-11-28T11:47:25.413Z,953.04
2018-11-28T11:49:51.732Z,953.12
2018-11-28T11:52:18.092Z,953.08
2018-11-28T11:54:44.422Z,953.09
2018-11-28T11:57:10.800Z,953.13
2018-11-28T11:59:37.126Z,953.15
2018-11-28T12:02:03.444Z,953.21
2018-11-28T12:04:29.785Z,953.24
2018-11-28T12:06:56.090Z,953.23
2018-11-28T12:09:22.419Z,953.17
2018-11-28T12:11:48.737Z,953.28
2018-11-28T12:14:15.145Z,953.28
2018-11-28T12:16:41.452Z,953.38
2018-11-28T12:19:07.847Z,953.39
2018-11-28T12:21:34.122Z,953.36
2018-11-28T12:24:00.474Z,953.41
2018-11-28T12:26:26.818Z,953.44
2018-11-28T12:28:53.135Z,953.53
2018-11-28T12:31:19.489Z,953.51
2018-11-28T12:33:45.784Z,953.51
2018-11-28T12:36:12.157Z,953.60
2018-11-28T12:38:40.892Z,953.60
2018-11-28T12:41:07.210Z,953.63
2018-11-28T12:43:33.552Z,953.70
2018-11-28T12:45:59.935Z,953.74
2018-11-28T12:48:26.253Z,953.80
2018-11-28T12:50:52.601Z,953.76
2018-11-28T12:53:18.966Z,953.81
2018-11-28T12:55:45.289Z,953.79
2018-11-28T12:58:11.604Z,953.90
2018-11-28T13:00:37.938Z,953.92
2018-11-28T13:03:04.230Z,954.00
2018-11-28T13:05:30.535Z,954.01
2018-11-28T13:07:56.892Z,954.02
2018-11-28T13:10:23.285Z,954.06
2018-11-28T13:12:49.609Z,954.10
2018-11-28T13:15:15.979Z,954.12
2018-11-28T13:17:42.279Z,954.22
2018-11-28T13:20:08.628Z,954.23
2018-11-28T13:22:34.964Z,954.34
2018-11-28T13:25:01.355Z,954.38
2018-11-28T13:27:27.692Z,954.45
2018-11-28T13:29:54.026Z,954.57
2018-11-28T13:32:20.406Z,954.53
2018-11-28T13:34:46.751Z,954.58
2018-11-28T13:37:13.113Z,954.70
2018-11-28T13:39:39.494Z,954.68
2018-11-28T13:42:05.850Z,954.75
2018-11-28T13:44:32.165Z,954.78
2018-11-28T13:46:58.498Z,954.82
2018-11-28T13:49:24.876Z,954.91
2018-11-28T13:51:51.178Z,954.91
2018-11-28T13:54:21.374Z,954.98
2018-11-28T13:57:02.993Z,954.95
2018-11-28T13:59:10.292Z,955.05
2018-11-28T14:01:36.607Z,955.15
2018-11-28T14:04:02.935Z,955.15
2018-11-28T14:06:29.287Z,955.17
2018-11-28T14:08:55.629Z,955.21
2018-11-28T14:11:21.939Z,955.26
2018-11-28T14:13:48.236Z,955.31
2018-11-28T14:16:14.560Z,955.32
2018-11-28T14:18:40.909Z,955.39
2018-11-28T14:21:07.235Z,955.40
2018-11-28T14:23:33.550Z,955.44
2018-11-28T14:25:59.889Z,955.44
2018-11-28T14:28:26.212Z,955.57
2018-11-28T14:30:52.543Z,955.65
2018-11-28T14:33:18.886Z,955.67
2018-11-28T14:35:45.309Z,955.67
2018-11-28T14:38:11.601Z,955.72
2018-11-28T14:40:37.911Z,955.69
2018-11-28T14:43:04.232Z,955.78
2018-11-28T14:45:30.554Z,955.86
2018-11-28T14:47:56.894Z,955.85
2018-11-28T14:50:23.194Z,956.06
2018-11-28T14:52:49.568Z,956.05
2018-11-28T14:55:15.846Z,956.08
2018-11-28T14:57:42.173Z,956.21
2018-11-28T15:00:08.523Z,956.19
2018-11-28T15:02:34.840Z,956.21
2018-11-28T15:05:01.173Z,956.29
2018-11-28T15:07:27.487Z,956.35
2018-11-28T15:09:53.831Z,956.39
2018-11-28T15:12:20.152Z,956.44
2018-11-28T15:14:46.478Z,956.43
2018-11-28T15:17:12.852Z,956.63
2018-11-28T15:19:39.209Z,956.66
2018-11-28T15:22:05.616Z,956.62
2018-11-28T15:24:31.906Z,956.75
2018-11-28T15:26:58.240Z,956.76
2018-11-28T15:29:24.546Z,956.75
2018-11-28T15:31:50.892Z,956.80
2018-11-28T15:34:17.220Z,956.79
2018-11-28T15:36:43.514Z,956.90
2018-11-28T15:39:09.818Z,956.95
2018-11-28T15:41:36.149Z,956.99
2018-11-28T15:44:02.467Z,957.01
2018-11-28T15:46:28.815Z,957.07
2018-11-28T15:48:55.124Z,957.11
2018-11-28T15:51:21.419Z,957.06
2018-11-28T15:53:47.719Z,957.09
2018-11-28T15:56:14.065Z,957.13
2018-11-28T15:58:40.402Z,957.22
2018-11-28T16:01:06.698Z,957.20
2018-11-28T16:03:33.037Z,957.28
2018-11-28T16:05:59.353Z,957.34
2018-11-28T16:08:25.651Z,957.42
2018-11-28T16:10:51.983Z,957.41
2018-11-28T16:13:18.290Z,957.42
2018-11-28T16:15:44.574Z,957.45
2018-11-28T16:18:10.919Z,957.55
2018-11-28T16:20:37.293Z,957.55
2018-11-28T16:23:04.788Z,957.59
2018-11-28T16:25:29.988Z,957.65
2018-11-28T16:27:56.311Z,957.68
2018-11-28T16:30:22.675Z,957.72
2018-11-28T16:32:48.977Z,957.75
2018-11-28T16:35:15.331Z,957.88
2018-11-28T16:37:41.665Z,957.95
2018-11-28T16:40:07.983Z,957.94
2018-11-28T16:42:34.277Z,957.98
2018-11-28T16:45:00.614Z,958.10
2018-11-28T16:47:26.904Z,958.08
2018-11-28T16:49:53.227Z,958.06
2018-11-28T16:52:20.262Z,958.12
2018-11-28T16:54:46.554Z,958.18
2018-11-28T16:57:12.928Z,958.20
2018-11-28T16:59:39.299Z,958.27
2018-11-28T17:02:05.590Z,958.30
2018-11-28T17:04:31.997Z,958.29
2018-11-28T17:06:58.510Z,958.36
2018-11-28T17:09:24.976Z,958.37
2018-11-28T17:11:51.354Z,958.40
2018-11-28T17:14:17.659Z,958.50
2018-11-28T17:16:43.996Z,958.48
2018-11-28T17:19:10.302Z,958.55
2018-11-28T17:21:36.600Z,958.59
2018-11-28T17:24:02.945Z,958.58
2018-11-28T17:26:29.235Z,958.59
2018-11-28T17:28:55.565Z,958.72
2018-11-28T17:31:21.893Z,958.74
2018-11-28T17:33:48.199Z,958.87
2018-11-28T17:36:14.545Z,958.81
2018-11-28T17:38:40.867Z,958.91
2018-11-28T17:41:07.228Z,958.96
2018-11-28T17:43:33.552Z,958.97
2018-11-28T17:45:59.883Z,959.00
2018-11-28T17:48:26.171Z,959.00
2018-11-28T17:50:52.494Z,959.05
2018-11-28T17:53:18.830Z,959.08
2018-11-28T17:55:45.263Z,959.08
2018-11-28T17:58:11.588Z,959.13
2018-11-28T18:00:37.898Z,959.19
2018-11-28T18:03:04.198Z,959.20
2018-11-28T18:05:30.511Z,959.25
2018-11-28T18:07:56.846Z,959.23
2018-11-28T18:10:23.170Z,959.34
2018-11-28T18:12:49.506Z,959.38
2018-11-28T18:15:15.765Z,959.36
2018-11-28T18:17:42.097Z,959.41
2018-11-28T18:20:08.430Z,959.39
2018-11-28T18:22:34.739Z,959.37
2018-11-28T18:25:01.072Z,959.48
2018-11-28T18:27:27.383Z,959.51
2018-11-28T18:29:53.704Z,959.50
2018-11-28T18:32:20.038Z,959.51
2018-11-28T18:34:46.355Z,959.51
2018-11-28T18:37:12.681Z,959.56
2018-11-28T18:39:38.997Z,959.54
2018-11-28T18:42:05.322Z,959.61
2018-11-28T18:44:31.623Z,959.67
2018-11-28T18:46:57.933Z,959.61
2018-11-28T18:49:24.255Z,959.66
2018-11-28T18:51:51.646Z,959.67
2018-11-28T18:54:17.933Z,959.72
2018-11-28T18:56:44.247Z,959.77
2018-11-28T18:59:10.579Z,959.82
2018-11-28T19:01:36.892Z,959.86
2018-11-28T19:04:03.215Z,959.86
2018-11-28T19:06:29.558Z,959.92
2018-11-28T19:08:55.866Z,959.99
2018-11-28T19:11:22.184Z,960.06
2018-11-28T19:13:48.496Z,960.03
2018-11-28T19:16:14.829Z,960.10
2018-11-28T19:18:41.159Z,960.10
2018-11-28T19:21:07.467Z,960.16
2018-11-28T19:23:33.781Z,960.20
2018-11-28T19:26:00.143Z,960.22
2018-11-28T19:28:26.449Z,960.22
2018-11-28T19:30:52.778Z,960.22
2018-11-28T19:33:19.115Z,960.24
2018-11-28T19:35:45.493Z,960.22
2018-11-28T19:38:11.811Z,960.30
2018-11-28T19:40:38.130Z,960.37
2018-11-28T19:43:04.532Z,960.35
2018-11-28T19:45:30.771Z,960.51
2018-11-28T19:47:57.072Z,960.56
2018-11-28T19:50:23.409Z,960.53
2018-11-28T19:52:49.701Z,960.59
2018-11-28T19:55:16.006Z,960.60
2018-11-28T19:57:42.352Z,960.64
2018-11-28T20:00:08.640Z,960.67
2018-11-28T20:02:34.949Z,960.69
2018-11-28T20:05:01.254Z,960.74
2018-11-28T20:07:27.551Z,960.72
2018-11-28T20:09:53.864Z,960.80
2018-11-28T20:12:20.207Z,960.83
2018-11-28T20:14:46.579Z,960.89
2018-11-28T20:17:12.859Z,960.93
2018-11-28T20:19:39.199Z,961.00
2018-11-28T20:22:05.517Z,960.95
2018-11-28T20:24:31.868Z,961.00
2018-11-28T20:26:58.260Z,961.18
2018-11-28T20:29:24.478Z,961.13
2018-11-28T20:31:50.791Z,961.14
2018-11-28T20:34:17.105Z,961.24
2018-11-28T20:36:43.414Z,961.21
2018-11-28T20:39:09.723Z,961.25
2018-11-28T20:41:36.062Z,961.32
2018-11-28T20:44:02.353Z,961.40
2018-11-28T20:46:28.646Z,961.34
2018-11-28T20:48:54.972Z,961.35
2018-11-28T20:51:21.290Z,961.40
2018-11-28T20:53:47.579Z,961.41
2018-11-28T20:56:13.869Z,961.44
2018-11-28T20:58:40.168Z,961.55
2018-11-28T21:01:06.481Z,961.61
2018-11-28T21:03:32.808Z,961.62
2018-11-28T21:05:59.173Z,961.65
2018-11-28T21:08:25.463Z,961.63
2018-11-28T21:10:51.749Z,961.60
2018-11-28T21:13:18.065Z,961.70
2018-11-28T21:15:44.370Z,961.72
2018-11-28T21:18:10.662Z,961.66
2018-11-28T21:20:36.994Z,961.71
2018-11-28T21:23:03.314Z,961.77
2018-11-28T21:25:29.637Z,961.80
2018-11-28T21:27:55.943Z,961.88
2018-11-28T21:30:22.289Z,961.82
2018-11-28T21:32:48.586Z,961.91
2018-11-28T21:35:14.905Z,961.94
2018-11-28T21:37:43.940Z,961.94
2018-11-28T21:40:10.251Z,961.95
2018-11-28T21:42:36.561Z,961.88
2018-11-28T21:45:02.908Z,961.90
2018-11-28T21:47:29.190Z,961.94
2018-11-28T21:49:55.492Z,961.97
2018-11-28T21:52:21.824Z,961.94
2018-11-28T21:54:48.134Z,962.09
2018-11-28T21:57:14.417Z,962.12
2018-11-28T21:59:40.782Z,962.12
2018-11-28T22:02:07.076Z,962.13
2018-11-28T22:04:33.391Z,962.19
2018-11-28T22:06:59.708Z,962.16
2018-11-28T22:09:26.115Z,962.14
2018-11-28T22:11:52.429Z,962.21
2018-11-28T22:14:18.726Z,962.22
2018-11-28T22:16:45.034Z,962.25
2018-11-28T22:19:11.373Z,962.20
2018-11-28T22:21:37.693Z,962.19
2018-11-28T22:24:04.022Z,962.21
2018-11-28T22:26:30.345Z,962.21
2018-11-28T22:28:56.654Z,962.28
2018-11-28T22:31:22.979Z,962.24
2018-11-28T22:33:49.289Z,962.21
2018-11-28T22:36:15.602Z,962.18
2018-11-28T22:38:41.927Z,962.22
2018-11-28T22:41:08.273Z,962.25
2018-11-28T22:43:34.660Z,962.34
2018-11-28T22:46:00.989Z,962.30
2018-11-28T22:48:27.302Z,962.37
2018-11-28T22:50:53.639Z,962.36
2018-11-28T22:53:20.017Z,962.43
2018-11-28T22:55:46.337Z,962.43
2018-11-28T22:58:12.646Z,962.39
2018-11-28T23:00:38.956Z,962.52
2018-11-28T23:03:05.266Z,962.44
2018-11-28T23:05:31.555Z,962.53
2018-11-28T23:07:57.873Z,962.53
2018-11-28T23:10:24.179Z,962.44
2018-11-28T23:12:50.485Z,962.47
2018-11-28T23:15:16.776Z,962.47
2018-11-28T23:17:43.126Z,962.47
2018-11-28T23:20:09.415Z,962.53
2018-11-28T23:22:35.716Z,962.53
2018-11-28T23:25:02.017Z,962.56
2018-11-28T23:27:28.340Z,962.55
2018-11-28T23:29:54.636Z,962.54
2018-11-28T23:32:20.957Z,962.60
2018-11-28T23:34:47.261Z,962.54
2018-11-28T23:37:13.582Z,962.50
2018-11-28T23:39:39.987Z,962.57
2018-11-28T23:42:06.296Z,962.63
2018-11-28T23:44:32.613Z,962.57
2018-11-28T23:46:58.907Z,962.64
2018-11-28T23:49:25.250Z,962.64
2018-11-28T23:51:51.551Z,962.79
2018-11-28T23:54:17.881Z,962.82
2018-11-28T23:56:44.203Z,962.75
2018-11-28T23:59:10.523Z,962.75
